Tulare, CA (93274)

11:12 PM PDT on August 27, 2015 (GMT -0700)
APRSWXNET | | Change Station
CLOSE
Current Station
Personal Weather Station
Location: Tulare, CA
Elevation: 288 ft
Nearby Weather Stations

Elev 288 ft 36.20 °N, 119.33 °W | Updated 34 minutes ago

Clear
Clear
85 °F
Feels Like 85 °F
N
0
Wind Variable Wind from NW
Gusts 0.0 mph

Today
High -- | Low -- °F
--% Chance of Precip.
Yesterday
High -- | Low -- °F
Precip. -- in
6:24 AM 7:32 PM
Waxing Gibbous, 97% visible
Pressure 29.91 in
Visibility 10.0 miles
Clouds Clear
Heat Index 85 °F
Dew Point 61 °F
Humidity 44%
Rainfall in
Snow Depth Not available.
UV 0 out of 12
Pollen 8.90 out of 12
Air Quality Not available.
Flu Activity Not available.
METAR KHJO 280553Z AUTO 30007KT 10SM CLR 30/12 A2991 RMK AO2 SLP127 T03000117 10394 20294 51015
Pressure 29.91 in
Visibility 10.0 miles
Clouds Clear
Heat Index 85 °F
Dew Point 61 °F
Humidity 44%
Rainfall in
Snow Depth Not available.
UV 0 out of 12
Pollen 8.90 out of 12
Air Quality Not available.
Flu Activity Not available.
METAR KHJO 280553Z AUTO 30007KT 10SM CLR 30/12 A2991 RMK AO2 SLP127 T03000117 10394 20294 51015

10-Day Weather Forecast

×

Almanac

Astronomy

Aug. 27, 2015 Rise Set
Actual Time
Civil Twilight
Nautical Twilight
Astronomical Twilight
Moon
Length of Visible Light
Length of Day
Tomorrow will be .
, % of the Moon is Illuminated

Today's Extremes

State Highs State Lows

Community

WunderPhotos

Upload Photos

1,850,341 photos uploaded!

WunderBlogs® & News

Nearby

Air Quality

  Air Quality AQ Index Pollutant
Not available.

Snow Depth

Station Depth Elevation

Earthquake Activity

City Distance Mag. Time & Date
Minimum magnitude displayed is 2.5.

Coastal Water Temperatures

Place Temperature

Stations

Nearby Weather Stations

Station Location Temp. Windchill Dew Point Humidity Wind Precip. Elev Updated Type